Verden, Oklahoma
Current Conditions -  °F | °C
As of 3:15 PM on Friday 24 Oct 2014 (Local Time) from KRCE Reporting Station
Clear Clear  
Wind Chill: 82°   Ceiling: Unl
Heat Index: 83°   Visibility: NA
Dew Point: 61°   Wind: 15mph
Humidity: 48%   Direction: 200°SSW
Pressure: 30.05"   Gusts: 23mph
Location:  35.08°N, 98.09°W
Report Text: KRCE 242015Z AUTO 20013G20KT CLR 28/16 A3005 RMK AO2
Loading
Personal Weather Stations






























Interactive Weather Map
Tropical Storm Tracking
New forecast layout! Learn more

10-Day Weather Forecast

Advertisements
Track Severe Weather on mobile